createdAt,value
2023-05-17T00:01:34.002Z,10.14
2023-05-17T00:03:36.978Z,10.14
2023-05-17T00:05:39.981Z,10.14
2023-05-17T00:07:43.573Z,10.13
2023-05-17T00:09:51.258Z,10.11
2023-05-17T00:11:55.051Z,10.06
2023-05-17T00:13:58.155Z,10.04
2023-05-17T00:16:01.238Z,10.01
2023-05-17T00:18:09.627Z,9.99
2023-05-17T00:20:13.557Z,9.97
2023-05-17T00:22:16.576Z,9.94
2023-05-17T00:24:20.191Z,9.89
2023-05-17T00:26:24.833Z,9.84
2023-05-17T00:28:30.120Z,9.79
2023-05-17T00:30:35.785Z,9.73
2023-05-17T00:32:39.829Z,9.68
2023-05-17T00:34:42.432Z,9.68
2023-05-17T00:36:46.180Z,9.65
2023-05-17T00:38:51.850Z,9.62
2023-05-17T00:40:54.735Z,9.62
2023-05-17T00:42:57.418Z,9.61
2023-05-17T00:45:04.602Z,9.61
2023-05-17T00:47:08.079Z,9.61
2023-05-17T00:49:14.665Z,9.60
2023-05-17T00:51:26.334Z,9.58
2023-05-17T00:53:30.740Z,9.54
2023-05-17T00:55:34.029Z,9.49
2023-05-17T00:57:36.998Z,9.43
2023-05-17T00:59:40.121Z,9.41
2023-05-17T01:01:46.344Z,9.38
2023-05-17T01:03:50.334Z,9.33
2023-05-17T01:05:56.016Z,9.30
2023-05-17T01:08:01.557Z,9.30
2023-05-17T01:10:09.368Z,9.28
2023-05-17T01:12:53.683Z,9.26
2023-05-17T01:15:08.371Z,9.24
2023-05-17T01:17:19.031Z,9.19
2023-05-17T01:19:51.169Z,9.17
2023-05-17T01:22:27.038Z,9.14
2023-05-17T01:25:00.150Z,9.12
2023-05-17T01:27:08.345Z,9.07
2023-05-17T01:29:17.997Z,9.01
2023-05-17T01:31:26.964Z,8.97
2023-05-17T01:33:32.756Z,8.94
2023-05-17T01:35:43.395Z,8.92
2023-05-17T01:37:57.622Z,8.90
2023-05-17T01:40:03.608Z,8.88
2023-05-17T01:42:31.582Z,8.87
2023-05-17T01:44:58.820Z,8.84
2023-05-17T01:47:20.536Z,8.80
2023-05-17T01:49:43.714Z,8.77
2023-05-17T01:52:26.318Z,8.75
2023-05-17T01:54:39.832Z,8.72
2023-05-17T01:56:49.158Z,8.68
2023-05-17T01:58:56.636Z,8.61
2023-05-17T02:01:01.233Z,8.55
2023-05-17T02:03:08.457Z,8.48
2023-05-17T02:05:14.621Z,8.47
2023-05-17T02:07:33.799Z,8.45
2023-05-17T02:09:38.110Z,8.45
2023-05-17T02:11:50.085Z,8.44
2023-05-17T02:13:58.408Z,8.42
2023-05-17T02:16:04.571Z,8.40
2023-05-17T02:18:11.877Z,8.39
2023-05-17T02:20:19.629Z,8.36
2023-05-17T02:22:31.643Z,8.33
2023-05-17T02:24:42.489Z,8.31
2023-05-17T02:26:45.963Z,8.27
2023-05-17T02:28:59.225Z,8.23
2023-05-17T02:31:02.768Z,8.17
2023-05-17T02:33:11.280Z,8.11
2023-05-17T02:35:18.925Z,8.06
2023-05-17T02:37:21.944Z,8.05
2023-05-17T02:39:26.311Z,8.03
2023-05-17T02:41:32.714Z,8.06
2023-05-17T02:43:38.725Z,8.08
2023-05-17T02:45:45.278Z,8.10
2023-05-17T02:47:50.433Z,8.13
2023-05-17T02:50:03.787Z,8.15
2023-05-17T02:52:09.043Z,8.15
2023-05-17T02:54:19.014Z,8.15
2023-05-17T02:56:25.991Z,8.16
2023-05-17T02:58:35.756Z,8.13
2023-05-17T03:00:43.550Z,8.12
2023-05-17T03:02:59.110Z,8.11
2023-05-17T03:05:19.317Z,8.08
2023-05-17T03:07:28.285Z,8.06
2023-05-17T03:09:37.110Z,8.05
2023-05-17T03:11:54.758Z,8.04
2023-05-17T03:14:07.892Z,8.04
2023-05-17T03:16:16.073Z,8.03
2023-05-17T03:18:22.143Z,8.01
2023-05-17T03:20:27.883Z,7.99
2023-05-17T03:22:30.778Z,7.96
2023-05-17T03:24:41.717Z,7.92
2023-05-17T03:26:47.401Z,7.86
2023-05-17T03:28:50.302Z,7.82
2023-05-17T03:30:57.466Z,7.78
2023-05-17T03:33:09.869Z,7.73
2023-05-17T03:35:15.209Z,7.64
2023-05-17T03:37:21.669Z,7.60
2023-05-17T03:41:53.806Z,7.56
2023-05-17T03:43:58.109Z,7.55
2023-05-17T03:46:05.193Z,7.56
2023-05-17T03:48:14.440Z,7.58
2023-05-17T03:50:19.677Z,7.58
2023-05-17T03:52:24.068Z,7.58
2023-05-17T03:54:28.506Z,7.58
2023-05-17T03:56:36.022Z,7.59
2023-05-17T03:58:48.239Z,7.59
2023-05-17T04:01:01.628Z,7.60
2023-05-17T04:03:10.845Z,7.59
2023-05-17T04:05:16.120Z,7.57
2023-05-17T04:07:23.685Z,7.56
2023-05-17T04:09:54.010Z,7.54
2023-05-17T04:12:24.548Z,7.55
2023-05-17T04:14:29.064Z,7.56
2023-05-17T04:16:37.966Z,7.59
2023-05-17T04:18:48.733Z,7.64
2023-05-17T04:20:58.340Z,7.69
2023-05-17T04:23:07.335Z,7.73
2023-05-17T04:25:10.667Z,7.74
2023-05-17T04:27:15.171Z,7.76
2023-05-17T04:29:18.200Z,7.76
2023-05-17T04:31:21.767Z,7.76
2023-05-17T04:33:25.573Z,7.76
2023-05-17T04:35:28.724Z,7.76
2023-05-17T04:37:34.151Z,7.77
2023-05-17T04:39:45.371Z,7.79
2023-05-17T04:41:50.391Z,7.82
2023-05-17T04:43:53.226Z,7.85
2023-05-17T04:46:01.127Z,7.89
2023-05-17T04:48:07.543Z,7.92
2023-05-17T04:50:20.169Z,7.90
2023-05-17T04:52:23.059Z,7.90
2023-05-17T04:54:31.888Z,7.90
2023-05-17T04:56:37.712Z,7.91
2023-05-17T04:58:46.639Z,7.92
2023-05-17T05:00:56.111Z,7.92
2023-05-17T05:03:10.048Z,7.93
2023-05-17T05:05:15.228Z,7.93
2023-05-17T05:07:22.722Z,7.89
2023-05-17T05:09:25.682Z,7.90
2023-05-17T05:11:38.792Z,7.94
2023-05-17T05:13:42.636Z,7.98
2023-05-17T05:15:45.961Z,8.01
2023-05-17T05:17:49.074Z,8.06
2023-05-17T05:19:52.901Z,8.11
2023-05-17T05:22:02.353Z,8.15
2023-05-17T05:24:15.487Z,8.21
2023-05-17T05:26:31.054Z,8.26
2023-05-17T05:28:41.214Z,8.33
2023-05-17T05:30:45.349Z,8.39
2023-05-17T05:32:55.777Z,8.46
2023-05-17T05:35:11.347Z,8.52
2023-05-17T05:37:18.673Z,8.59
2023-05-17T05:39:25.124Z,8.65
2023-05-17T05:41:35.504Z,8.68
2023-05-17T05:43:44.936Z,8.72
2023-05-17T05:45:52.351Z,8.74
2023-05-17T05:48:13.716Z,8.82
2023-05-17T05:50:24.131Z,8.86
2023-05-17T05:52:28.176Z,8.91
2023-05-17T05:54:35.689Z,8.97
2023-05-17T05:56:41.288Z,9.03
2023-05-17T05:58:45.957Z,9.08
2023-05-17T06:00:49.686Z,9.11
2023-05-17T06:02:54.206Z,9.14
2023-05-17T06:04:57.805Z,9.18
2023-05-17T06:07:01.619Z,9.24
2023-05-17T06:09:09.254Z,9.30
2023-05-17T06:11:20.877Z,9.32
2023-05-17T06:13:28.702Z,9.38
2023-05-17T06:15:34.856Z,9.43
2023-05-17T06:17:37.724Z,9.50
2023-05-17T06:19:42.898Z,9.54
2023-05-17T06:21:50.617Z,9.57
2023-05-17T06:23:56.567Z,9.61
2023-05-17T06:26:01.477Z,9.65
2023-05-17T06:28:09.663Z,9.68
2023-05-17T06:30:15.474Z,9.73
2023-05-17T06:32:22.558Z,9.77
2023-05-17T06:34:37.430Z,9.81
2023-05-17T06:36:40.821Z,9.82
2023-05-17T06:38:52.999Z,9.83
2023-05-17T06:41:00.076Z,9.86
2023-05-17T06:43:11.272Z,9.86
2023-05-17T06:45:17.306Z,9.90
2023-05-17T06:47:24.137Z,9.94
2023-05-17T06:49:32.529Z,9.98
2023-05-17T06:51:44.770Z,10.03
2023-05-17T06:53:51.050Z,10.07
2023-05-17T06:55:59.064Z,10.09
2023-05-17T06:58:04.384Z,10.11
2023-05-17T07:00:23.063Z,10.13
2023-05-17T07:02:41.235Z,10.15
2023-05-17T07:04:49.952Z,10.18
2023-05-17T07:06:55.980Z,10.24
2023-05-17T07:09:06.217Z,10.27
2023-05-17T07:11:09.196Z,10.28
2023-05-17T07:13:19.251Z,10.32
2023-05-17T07:15:29.427Z,10.38
2023-05-17T07:17:46.458Z,10.50
2023-05-17T07:19:53.676Z,10.58
2023-05-17T07:22:10.127Z,10.63
2023-05-17T07:24:19.608Z,10.74
2023-05-17T07:26:29.761Z,10.82
2023-05-17T07:28:40.873Z,10.88
2023-05-17T07:30:47.914Z,10.91
2023-05-17T07:32:50.916Z,10.92
2023-05-17T07:34:55.656Z,10.93
2023-05-17T07:37:01.821Z,10.93
2023-05-17T07:39:05.806Z,10.90
2023-05-17T07:41:12.629Z,10.92
2023-05-17T07:43:17.785Z,10.95
2023-05-17T07:45:21.948Z,10.99
2023-05-17T07:47:27.697Z,11.01
2023-05-17T07:49:34.533Z,11.03
2023-05-17T07:51:39.568Z,11.07
2023-05-17T07:53:49.847Z,11.12
2023-05-17T07:55:56.003Z,11.17
2023-05-17T07:58:04.581Z,11.20
2023-05-17T08:00:12.489Z,11.22
2023-05-17T08:02:18.114Z,11.25
2023-05-17T08:04:23.882Z,11.28
2023-05-17T08:06:32.118Z,11.31
2023-05-17T08:08:40.892Z,11.31
2023-05-17T08:10:50.848Z,11.30
2023-05-17T08:12:57.337Z,11.30
2023-05-17T08:15:03.175Z,11.30
2023-05-17T08:17:12.553Z,11.31
2023-05-17T08:19:17.538Z,11.33
2023-05-17T08:21:24.980Z,11.33
2023-05-17T08:23:34.771Z,11.32
2023-05-17T08:27:57.225Z,11.40
2023-05-17T08:30:01.825Z,11.42
2023-05-17T08:32:08.744Z,11.43
2023-05-17T08:34:16.516Z,11.43
2023-05-17T08:36:31.018Z,11.46
2023-05-17T08:38:39.486Z,11.49
2023-05-17T08:40:45.504Z,11.52
2023-05-17T08:42:53.897Z,11.54
2023-05-17T08:45:00.078Z,11.53
2023-05-17T08:47:13.701Z,11.51
2023-05-17T08:49:22.836Z,11.50
2023-05-17T08:51:27.789Z,11.50
2023-05-17T08:53:31.768Z,11.52
2023-05-17T08:57:58.777Z,11.53
2023-05-17T09:00:08.954Z,11.55
2023-05-17T09:02:13.785Z,11.52
2023-05-17T09:04:30.801Z,11.52
2023-05-17T09:06:41.630Z,11.51
2023-05-17T09:08:47.797Z,11.48
2023-05-17T09:10:57.044Z,11.47
2023-05-17T09:13:03.050Z,11.47
2023-05-17T09:15:24.837Z,11.46
2023-05-17T09:17:30.235Z,11.46
2023-05-17T09:19:34.669Z,11.47
2023-05-17T09:21:46.986Z,11.49
2023-05-17T09:24:02.236Z,11.53
2023-05-17T09:26:10.670Z,11.56
2023-05-17T09:28:23.275Z,11.61
2023-05-17T09:32:56.154Z,11.74
2023-05-17T09:35:40.420Z,11.76
2023-05-17T09:37:47.467Z,11.79
2023-05-17T09:39:52.278Z,11.80
2023-05-17T09:41:59.695Z,11.83
2023-05-17T09:44:12.848Z,11.86
2023-05-17T09:46:17.079Z,11.88
2023-05-17T09:48:26.947Z,11.90
2023-05-17T09:50:34.660Z,11.91
2023-05-17T09:52:47.995Z,11.93
2023-05-17T09:54:56.290Z,11.96
2023-05-17T09:57:08.884Z,11.99
2023-05-17T09:59:17.075Z,11.99
2023-05-17T10:01:23.550Z,12.00
2023-05-17T10:03:31.887Z,12.03
2023-05-17T10:05:40.367Z,12.07
2023-05-17T10:07:46.673Z,12.07
2023-05-17T10:09:53.783Z,12.10
2023-05-17T10:11:58.132Z,12.13
2023-05-17T10:14:14.045Z,12.13
2023-05-17T10:16:18.733Z,12.14
2023-05-17T10:18:22.437Z,12.14
2023-05-17T10:20:26.161Z,12.17
2023-05-17T10:22:35.512Z,12.20
2023-05-17T10:24:46.963Z,12.21
2023-05-17T10:26:53.234Z,12.23
2023-05-17T10:29:05.282Z,12.23
2023-05-17T10:31:10.883Z,12.24
2023-05-17T10:33:20.230Z,12.29
2023-05-17T10:35:26.178Z,12.32
2023-05-17T10:37:35.766Z,12.37
2023-05-17T10:39:39.104Z,12.45
2023-05-17T10:41:46.871Z,12.50
2023-05-17T10:43:51.669Z,12.55
2023-05-17T10:46:07.071Z,12.61
2023-05-17T10:48:12.270Z,12.62
2023-05-17T10:50:31.390Z,12.64
2023-05-17T10:52:49.554Z,12.69
2023-05-17T10:54:55.255Z,12.71
2023-05-17T10:57:09.001Z,12.73
2023-05-17T10:59:22.210Z,12.78
2023-05-17T11:02:06.675Z,12.83
2023-05-17T11:04:57.668Z,12.88
2023-05-17T11:07:19.957Z,13.00
2023-05-17T11:09:25.853Z,13.06
2023-05-17T11:11:33.859Z,13.06
2023-05-17T11:13:59.007Z,13.08
2023-05-17T11:16:07.812Z,13.14
2023-05-17T11:18:30.075Z,13.21
2023-05-17T11:20:37.338Z,13.30
2023-05-17T11:23:18.047Z,13.38
2023-05-17T11:25:31.799Z,13.38
2023-05-17T11:27:51.970Z,13.37
2023-05-17T11:30:28.984Z,13.41
2023-05-17T11:32:40.384Z,13.43
2023-05-17T11:34:55.282Z,13.43
2023-05-17T11:36:59.122Z,13.45
2023-05-17T11:39:13.176Z,13.50
2023-05-17T11:43:30.777Z,13.61
2023-05-17T11:46:08.480Z,13.64
2023-05-17T11:48:14.930Z,13.67
2023-05-17T11:50:18.639Z,13.71
2023-05-17T11:52:23.469Z,13.78
2023-05-17T11:54:27.671Z,13.81
2023-05-17T11:56:43.414Z,13.83
2023-05-17T11:59:00.674Z,13.92
2023-05-17T12:01:08.203Z,14.01
2023-05-17T12:03:50.134Z,14.08
2023-05-17T12:06:16.442Z,14.16
2023-05-17T12:08:29.171Z,14.16
2023-05-17T12:10:34.775Z,14.18
2023-05-17T12:12:41.451Z,14.20
2023-05-17T12:14:47.949Z,14.20
2023-05-17T12:17:04.913Z,14.18
2023-05-17T12:19:23.322Z,14.16
2023-05-17T12:21:28.578Z,14.16
2023-05-17T12:23:49.587Z,14.15
2023-05-17T12:26:16.948Z,14.17
2023-05-17T12:28:23.122Z,14.20
2023-05-17T12:30:42.446Z,14.19
2023-05-17T12:32:50.448Z,14.16
2023-05-17T12:34:58.027Z,14.18
2023-05-17T12:37:10.612Z,14.25
2023-05-17T12:39:25.544Z,14.36
2023-05-17T12:41:30.882Z,14.51
2023-05-17T12:43:38.014Z,14.64
2023-05-17T12:45:45.653Z,14.74
2023-05-17T12:47:51.603Z,14.75
2023-05-17T12:49:57.723Z,14.74
2023-05-17T12:52:05.455Z,14.73
2023-05-17T12:54:10.431Z,14.73
2023-05-17T12:56:32.548Z,14.76
2023-05-17T12:58:36.826Z,14.83
2023-05-17T13:00:56.676Z,14.92
2023-05-17T13:03:05.027Z,15.02
2023-05-17T13:05:20.396Z,15.10
2023-05-17T13:07:27.033Z,15.13
2023-05-17T13:09:39.634Z,15.09
2023-05-17T13:11:53.950Z,15.12
2023-05-17T13:13:59.181Z,15.19
2023-05-17T13:16:06.477Z,15.27
2023-05-17T13:18:17.607Z,15.39
2023-05-17T13:20:29.684Z,15.47
2023-05-17T13:22:41.302Z,15.49
2023-05-17T13:24:54.491Z,15.55
2023-05-17T13:27:02.561Z,15.57
2023-05-17T13:29:11.842Z,15.59
2023-05-17T13:31:27.224Z,15.56
2023-05-17T13:33:38.057Z,15.52
2023-05-17T13:35:47.763Z,15.60
2023-05-17T13:37:53.022Z,15.63
2023-05-17T13:39:59.558Z,15.65
2023-05-17T13:42:06.544Z,15.67
2023-05-17T13:44:11.928Z,15.70
2023-05-17T13:46:18.305Z,15.75
2023-05-17T13:48:22.272Z,15.86
2023-05-17T13:50:33.862Z,15.91
2023-05-17T13:52:50.558Z,15.92
2023-05-17T13:54:54.125Z,15.95
2023-05-17T13:57:00.055Z,16.04
2023-05-17T13:59:06.607Z,16.11
2023-05-17T14:01:17.967Z,16.15
2023-05-17T14:03:30.309Z,16.21
2023-05-17T14:05:39.988Z,16.32
2023-05-17T14:07:47.076Z,16.43
2023-05-17T14:09:54.880Z,16.54
2023-05-17T14:12:04.780Z,16.64
2023-05-17T14:14:12.053Z,16.69
2023-05-17T14:16:17.034Z,16.74
2023-05-17T14:18:21.096Z,16.83
2023-05-17T14:20:24.248Z,16.94
2023-05-17T14:22:38.595Z,17.02
2023-05-17T14:24:46.849Z,17.10
2023-05-17T14:26:58.497Z,17.17
2023-05-17T14:29:06.418Z,17.19
2023-05-17T14:31:12.294Z,17.13
2023-05-17T14:33:19.813Z,17.07
2023-05-17T14:35:24.075Z,17.06
2023-05-17T14:37:40.752Z,17.05
2023-05-17T14:40:05.283Z,17.11
2023-05-17T14:42:17.460Z,17.23
2023-05-17T14:44:31.882Z,17.34
2023-05-17T14:46:37.323Z,17.41
2023-05-17T14:48:41.804Z,17.43
2023-05-17T14:50:47.547Z,17.46
2023-05-17T14:52:59.279Z,17.47
2023-05-17T14:55:03.558Z,17.49
2023-05-17T14:57:19.192Z,17.45
2023-05-17T14:59:37.275Z,17.43
2023-05-17T15:01:41.810Z,17.39
2023-05-17T15:03:44.715Z,17.33
2023-05-17T15:05:58.257Z,17.43
2023-05-17T15:08:01.156Z,17.60
2023-05-17T15:10:05.013Z,17.74
2023-05-17T15:12:14.202Z,17.87
2023-05-17T15:14:24.820Z,18.09
2023-05-17T15:16:39.109Z,18.35
2023-05-17T15:18:44.979Z,18.57
2023-05-17T15:20:50.465Z,18.66
2023-05-17T15:22:58.650Z,18.80
2023-05-17T15:25:07.674Z,18.90
2023-05-17T15:27:12.793Z,19.03
2023-05-17T15:29:24.613Z,19.07
2023-05-17T15:31:29.063Z,19.10
2023-05-17T15:33:32.468Z,19.14
2023-05-17T15:35:35.135Z,19.28
2023-05-17T15:37:43.564Z,19.43
2023-05-17T15:39:50.399Z,19.41
2023-05-17T15:41:52.958Z,19.52
2023-05-17T15:43:59.012Z,19.69
2023-05-17T15:46:04.491Z,19.86
2023-05-17T15:48:11.452Z,19.96
2023-05-17T15:50:15.525Z,20.10
2023-05-17T15:52:19.636Z,20.26
2023-05-17T15:54:23.197Z,20.30
2023-05-17T15:56:27.368Z,20.31
2023-05-17T15:58:33.589Z,20.40
2023-05-17T16:00:38.062Z,20.48
2023-05-17T16:02:41.010Z,20.61
2023-05-17T16:04:45.204Z,20.73
2023-05-17T16:06:48.060Z,20.95
2023-05-17T16:08:51.183Z,21.07
2023-05-17T16:10:55.721Z,21.09
2023-05-17T16:12:58.609Z,21.06
2023-05-17T16:15:05.051Z,21.03
2023-05-17T16:17:17.711Z,21.13
2023-05-17T16:19:24.375Z,21.07
2023-05-17T16:21:31.333Z,20.97
2023-05-17T16:23:35.238Z,20.92
2023-05-17T16:25:39.632Z,20.92
2023-05-17T16:27:47.691Z,20.94
2023-05-17T16:29:51.013Z,20.96
2023-05-17T16:31:56.141Z,20.93
2023-05-17T16:33:59.619Z,20.91
2023-05-17T16:36:17.747Z,20.88
2023-05-17T16:38:27.227Z,20.82
2023-05-17T16:40:37.457Z,20.84
2023-05-17T16:42:49.108Z,20.90
2023-05-17T16:44:55.499Z,20.88
2023-05-17T16:47:00.794Z,20.76
2023-05-17T16:49:04.276Z,20.60
2023-05-17T16:51:07.586Z,20.42
2023-05-17T16:53:12.869Z,20.25
2023-05-17T16:55:23.427Z,20.23
2023-05-17T16:57:27.601Z,20.28
2023-05-17T16:59:32.319Z,20.32
2023-05-17T17:01:35.078Z,20.42
2023-05-17T17:03:39.483Z,20.55
2023-05-17T17:05:45.527Z,20.55
2023-05-17T17:07:48.790Z,20.60
2023-05-17T17:09:58.686Z,20.71
2023-05-17T17:12:16.256Z,20.76
2023-05-17T17:14:30.759Z,20.83
2023-05-17T17:16:38.576Z,20.92
2023-05-17T17:18:44.625Z,20.99
2023-05-17T17:20:52.085Z,20.94
2023-05-17T17:22:56.648Z,20.84
2023-05-17T17:25:02.903Z,20.80
2023-05-17T17:27:06.654Z,20.75
2023-05-17T17:29:17.059Z,20.73
2023-05-17T17:31:22.456Z,20.77
2023-05-17T17:33:28.014Z,20.72
2023-05-17T17:35:32.160Z,20.63
2023-05-17T17:37:39.388Z,20.58
2023-05-17T17:39:42.647Z,20.48
2023-05-17T17:41:47.612Z,20.45
2023-05-17T17:43:51.635Z,20.42
2023-05-17T17:45:56.104Z,20.42
2023-05-17T17:48:02.449Z,20.42
2023-05-17T17:50:09.202Z,20.37
2023-05-17T17:52:14.651Z,20.27
2023-05-17T17:54:19.554Z,20.10
2023-05-17T17:56:23.864Z,19.91
2023-05-17T17:58:30.976Z,19.72
2023-05-17T18:00:34.980Z,19.46
2023-05-17T18:02:44.632Z,19.20
2023-05-17T18:04:48.896Z,18.94
2023-05-17T18:06:54.992Z,18.68
2023-05-17T18:09:06.492Z,18.42
2023-05-17T18:11:10.089Z,18.20
2023-05-17T18:13:13.869Z,17.94
2023-05-17T18:15:18.712Z,17.75
2023-05-17T18:17:24.173Z,17.54
2023-05-17T18:19:29.021Z,17.38
2023-05-17T18:21:37.779Z,17.24
2023-05-17T18:23:51.305Z,17.11
2023-05-17T18:25:55.796Z,16.98
2023-05-17T18:28:03.003Z,16.85
2023-05-17T18:30:12.639Z,16.75
2023-05-17T18:32:17.483Z,16.64
2023-05-17T18:34:25.068Z,16.54
2023-05-17T18:36:28.729Z,16.43
2023-05-17T18:38:31.812Z,16.31
2023-05-17T18:40:43.997Z,16.19
2023-05-17T18:42:50.458Z,16.08
2023-05-17T18:45:07.425Z,15.95
2023-05-17T18:47:21.958Z,15.89
2023-05-17T18:49:26.785Z,15.82
2023-05-17T18:51:40.430Z,15.70
2023-05-17T18:53:45.642Z,15.57
2023-05-17T18:55:49.918Z,15.46
2023-05-17T18:58:11.911Z,15.33
2023-05-17T19:00:29.855Z,15.21
2023-05-17T19:02:34.458Z,15.10
2023-05-17T19:04:38.672Z,15.04
2023-05-17T19:06:42.636Z,14.98
2023-05-17T19:08:52.257Z,14.89
2023-05-17T19:11:04.269Z,14.83
2023-05-17T19:13:08.410Z,14.78
2023-05-17T19:15:13.853Z,14.73
2023-05-17T19:17:20.893Z,14.65
2023-05-17T19:19:26.555Z,14.59
2023-05-17T19:21:31.680Z,14.51
2023-05-17T19:23:38.760Z,14.42
2023-05-17T19:25:48.873Z,14.32
2023-05-17T19:27:57.498Z,14.25
2023-05-17T19:30:05.638Z,14.17
2023-05-17T19:32:12.936Z,14.10
2023-05-17T19:34:17.835Z,14.06
2023-05-17T19:38:45.266Z,13.95
2023-05-17T19:40:51.382Z,13.88
2023-05-17T19:43:16.772Z,13.84
2023-05-17T19:45:24.181Z,13.79
2023-05-17T19:47:30.129Z,13.76
2023-05-17T19:49:35.160Z,13.73
2023-05-17T19:51:39.294Z,13.69
2023-05-17T19:53:53.658Z,13.66
2023-05-17T19:56:01.173Z,13.68
2023-05-17T19:58:05.827Z,13.70
2023-05-17T20:00:10.630Z,13.73
2023-05-17T20:02:18.808Z,13.74
2023-05-17T20:04:22.057Z,13.72
2023-05-17T20:06:24.722Z,13.67
2023-05-17T20:08:28.307Z,13.62
2023-05-17T20:10:41.577Z,13.57
2023-05-17T20:12:47.599Z,13.52
2023-05-17T20:14:52.143Z,13.47
2023-05-17T20:17:01.880Z,13.43
2023-05-17T20:19:05.053Z,13.40
2023-05-17T20:21:09.714Z,13.37
2023-05-17T20:23:16.079Z,13.35
2023-05-17T20:25:28.825Z,13.31
2023-05-17T20:27:36.293Z,13.27
2023-05-17T20:29:40.573Z,13.23
2023-05-17T20:31:49.676Z,13.21
2023-05-17T20:33:54.890Z,13.16
2023-05-17T20:36:00.719Z,13.13
2023-05-17T20:38:04.831Z,13.09
2023-05-17T20:40:10.030Z,13.05
2023-05-17T20:42:25.139Z,13.00
2023-05-17T20:44:35.787Z,12.95
2023-05-17T20:46:45.320Z,12.92
2023-05-17T20:48:51.340Z,12.83
2023-05-17T20:50:56.687Z,12.75
2023-05-17T20:52:59.706Z,12.69
2023-05-17T20:55:06.076Z,12.65
2023-05-17T20:57:09.326Z,12.62
2023-05-17T20:59:23.439Z,12.57
2023-05-17T21:01:29.867Z,12.55
2023-05-17T21:06:10.424Z,12.58
2023-05-17T21:08:19.463Z,12.58
2023-05-17T21:10:25.012Z,12.58
2023-05-17T21:12:27.976Z,12.58
2023-05-17T21:16:47.194Z,12.48
2023-05-17T21:18:54.149Z,12.44
2023-05-17T21:20:57.318Z,12.40
2023-05-17T21:23:01.119Z,12.37
2023-05-17T21:25:15.858Z,12.37
2023-05-17T21:27:19.717Z,12.36
2023-05-17T21:29:22.475Z,12.35
2023-05-17T21:31:31.815Z,12.34
2023-05-17T21:33:35.285Z,12.34
2023-05-17T21:35:41.825Z,12.33
2023-05-17T21:37:49.995Z,12.32
2023-05-17T21:39:56.931Z,12.30
2023-05-17T21:42:00.156Z,12.29
2023-05-17T21:44:09.383Z,12.25
2023-05-17T21:46:14.939Z,12.18
2023-05-17T21:48:22.446Z,12.11
2023-05-17T21:50:27.580Z,12.04
2023-05-17T21:52:34.455Z,11.95
2023-05-17T21:54:41.161Z,11.88
2023-05-17T21:56:46.811Z,11.83
2023-05-17T21:58:49.756Z,11.81
2023-05-17T22:00:53.860Z,11.76
2023-05-17T22:03:00.883Z,11.68
2023-05-17T22:05:05.720Z,11.61
2023-05-17T22:07:14.103Z,11.55
2023-05-17T22:09:24.233Z,11.55
2023-05-17T22:11:27.586Z,11.56
2023-05-17T22:13:37.441Z,11.59
2023-05-17T22:15:41.626Z,11.60
2023-05-17T22:17:51.845Z,11.61
2023-05-17T22:20:03.896Z,11.61
2023-05-17T22:22:12.489Z,11.61
2023-05-17T22:24:16.783Z,11.61
2023-05-17T22:26:48.719Z,11.61
2023-05-17T22:28:54.475Z,11.61
2023-05-17T22:31:00.119Z,11.59
2023-05-17T22:33:17.943Z,11.57
2023-05-17T22:35:28.781Z,11.54
2023-05-17T22:37:46.996Z,11.53
2023-05-17T22:39:55.393Z,11.52
2023-05-17T22:42:00.391Z,11.50
2023-05-17T22:44:04.033Z,11.50
2023-05-17T22:46:07.705Z,11.47
2023-05-17T22:48:16.337Z,11.41
2023-05-17T22:50:30.547Z,11.35
2023-05-17T22:52:34.125Z,11.32
2023-05-17T22:54:38.275Z,11.24
2023-05-17T22:56:44.229Z,11.16
2023-05-17T22:58:53.461Z,11.14
2023-05-17T23:00:59.138Z,11.15
2023-05-17T23:03:02.029Z,11.17
2023-05-17T23:05:09.642Z,11.17
2023-05-17T23:07:15.040Z,11.18
2023-05-17T23:09:18.436Z,11.18
2023-05-17T23:11:31.218Z,11.18
2023-05-17T23:13:37.284Z,11.18
2023-05-17T23:15:47.262Z,11.17
2023-05-17T23:18:03.283Z,11.15
2023-05-17T23:20:10.731Z,11.13
2023-05-17T23:22:18.069Z,11.10
2023-05-17T23:24:27.404Z,11.08
2023-05-17T23:26:34.428Z,11.06
2023-05-17T23:28:40.389Z,11.04
2023-05-17T23:30:55.735Z,11.00
2023-05-17T23:33:03.278Z,10.94
2023-05-17T23:35:09.791Z,10.87
2023-05-17T23:37:19.413Z,10.80
2023-05-17T23:39:23.869Z,10.70
2023-05-17T23:41:29.647Z,10.65
2023-05-17T23:43:32.801Z,10.58
2023-05-17T23:45:36.979Z,10.57
2023-05-17T23:47:44.093Z,10.57
2023-05-17T23:49:50.889Z,10.57
2023-05-17T23:51:56.452Z,10.57
2023-05-17T23:54:22.268Z,10.57
2023-05-17T23:56:30.359Z,10.57
2023-05-17T23:58:40.713Z,10.57
